Terminal Aerodrome Forecast
Issued by NWS

Current Version | Previous Version | Text Only | Print | Product List | Glossary On
Versions: 1 2 3 4 5 6 7 8 9 10 11 12 13 14
543
FTUS45 KTFX 300543
TAFLWT
TAF
KLWT 300543Z 3006/3106 21006KT P6SM VCSH SCT090 BKN110
     FM301100 25006KT P6SM VCSH BKN070
     FM301500 30018G28KT P6SM -SHRA BKN070
     FM310000 30012KT P6SM SCT070 BKN110=

USA.gov is the U.S. government's official web portal to all federal, state and local government web resources and services.